Time;durP1;ratioP1;P1;durP2;ratioP2;P2;SDS_P1;SDS_P2;PMS_P1;PMS_P2;Temp;Humidity;BMP_temperature;BMP_pressure;BME280_temperature;BME280_humidity;BME280_pressure;Samples;Min_cycle;Max_cycle;Signal;HPM_P1;HPM_P2
2022/05/19 00:02:18;;;;;;;10.63;3.22;;;;;;;;;;143743;608;45022;-58
2022/05/19 00:04:46;;;;;;;8.88;2.85;;;;;;;;;;143751;663;45021;-59
2022/05/19 00:07:14;;;;;;;13.45;4.20;;;;;;;;;;143747;628;47020;-59
2022/05/19 00:09:41;;;;;;;12.30;3.70;;;;;;;;;;143748;597;46916;-58
2022/05/19 00:12:17;;;;;;;10.48;3.42;;;;;;;;;;143749;570;45910;-58
2022/05/19 00:14:44;;;;;;;8.60;3.15;;;;;;;;;;143752;582;45020;-58
2022/05/19 00:17:11;;;;;;;9.82;3.92;;;;;;;;;;143748;571;47022;-58
2022/05/19 00:19:38;;;;;;;7.93;3.67;;;;;;;;;;143750;631;46010;-58
2022/05/19 00:22:06;;;;;;;7.32;3.15;;;;;;;;;;143748;577;45020;-58
2022/05/19 00:24:33;;;;;;;7.47;3.10;;;;;;;;;;143752;623;46020;-58
2022/05/19 00:27:00;;;;;;;13.45;3.90;;;;;;;;;;143742;567;47021;-58
2022/05/19 00:29:27;;;;;;;12.02;3.37;;;;;;;;;;143748;603;46010;-58
2022/05/19 00:31:55;;;;;;;9.57;3.45;;;;;;;;;;143747;571;45909;-58
2022/05/19 00:34:23;;;;;;;10.77;4.32;;;;;;;;;;143753;622;46021;-58
2022/05/19 00:36:56;;;;;;;9.98;4.10;;;;;;;;;;143748;569;47022;-58
2022/05/19 00:39:23;;;;;;;12.60;4.70;;;;;;;;;;143747;575;47010;-58
2022/05/19 00:42:43;;;;;;;9.20;3.85;;;;;;;;;;143750;712;45021;-58
2022/05/19 00:44:36;;;;;;;8.35;3.28;;;;;;;;;;143751;576;47020;-58
2022/05/19 00:47:04;;;;;;;11.60;3.70;;;;;;;;;;143747;590;47022;-58
2022/05/19 00:49:41;;;;;;;11.23;3.42;;;;;;;;;;143749;612;46022;-58
2022/05/19 00:52:26;;;;;;;6.15;2.95;;;;;;;;;;143746;622;45020;-58
2022/05/19 00:55:04;;;;;;;6.72;3.35;;;;;;;;;;143752;608;46039;-58
2022/05/19 00:57:38;;;;;;;6.15;2.87;;;;;;;;;;143748;564;47021;-58
2022/05/19 01:00:09;;;;;;;9.95;2.90;;;;;;;;;;143747;569;47010;-58
2022/05/19 01:02:42;;;;;;;16.65;5.85;;;;;;;;;;143750;571;45019;-58
2022/05/19 01:05:40;;;;;;;7.43;3.40;;;;;;;;;;143752;597;46022;-59
2022/05/19 01:08:16;;;;;;;14.00;3.20;;;;;;;;;;143747;621;47022;-58
2022/05/19 01:10:45;;;;;;;5.87;3.45;;;;;;;;;;143749;626;46010;-58
2022/05/19 01:13:13;;;;;;;7.47;2.85;;;;;;;;;;143750;630;45018;-58
2022/05/19 01:15:48;;;;;;;9.15;3.97;;;;;;;;;;143753;587;46022;-58
2022/05/19 01:18:16;;;;;;;9.10;2.80;;;;;;;;;;143740;618;47020;-58
2022/05/19 01:20:45;;;;;;;10.38;3.12;;;;;;;;;;143749;572;46022;-58
2022/05/19 01:23:47;;;;;;;7.75;3.30;;;;;;;;;;143748;610;45018;-58
2022/05/19 01:26:44;;;;;;;7.45;3.47;;;;;;;;;;143754;611;45023;-58
2022/05/19 01:29:13;;;;;;;8.63;2.65;;;;;;;;;;143750;577;47020;-58
2022/05/19 01:32:01;;;;;;;7.78;2.78;;;;;;;;;;143747;587;47026;-59
2022/05/19 01:34:31;;;;;;;10.45;3.65;;;;;;;;;;143748;599;45021;-58
2022/05/19 01:36:59;;;;;;;5.12;3.00;;;;;;;;;;143752;570;46010;-58
2022/05/19 01:39:30;;;;;;;6.30;3.05;;;;;;;;;;143748;623;47020;-58
2022/05/19 01:42:37;;;;;;;6.43;2.90;;;;;;;;;;143749;564;46022;-58
2022/05/19 01:45:55;;;;;;;12.10;3.35;;;;;;;;;;143743;585;45018;-58
2022/05/19 01:48:50;;;;;;;7.22;3.33;;;;;;;;;;143752;629;46023;-58
2022/05/19 01:51:44;;;;;;;9.02;3.37;;;;;;;;;;143748;585;47018;-58
2022/05/19 01:54:28;;;;;;;11.27;3.72;;;;;;;;;;143748;565;47010;-58
2022/05/19 01:57:06;;;;;;;7.90;3.80;;;;;;;;;;143748;566;45019;-58
2022/05/19 02:00:03;;;;;;;8.32;4.20;;;;;;;;;;143753;603;45022;-58
2022/05/19 02:02:52;;;;;;;13.75;4.12;;;;;;;;;;143748;590;47019;-58
2022/05/19 02:05:48;;;;;;;14.27;4.93;;;;;;;;;;143749;625;47010;-58
2022/05/19 02:08:22;;;;;;;11.55;3.92;;;;;;;;;;143750;571;46018;-58
2022/05/19 02:10:51;;;;;;;12.50;4.23;;;;;;;;;;143754;621;46023;-58
2022/05/19 02:13:19;;;;;;;13.73;4.95;;;;;;;;;;143740;575;47034;-58
2022/05/19 02:15:49;;;;;;;15.10;5.20;;;;;;;;;;143746;587;46022;-58
2022/05/19 02:18:17;;;;;;;17.75;4.90;;;;;;;;;;143749;574;45019;-58
2022/05/19 02:20:47;;;;;;;16.17;4.95;;;;;;;;;;143753;571;46022;-58
2022/05/19 02:23:16;;;;;;;17.35;4.57;;;;;;;;;;143748;569;47018;-58
2022/05/19 02:25:48;;;;;;;9.90;4.70;;;;;;;;;;143747;619;47010;-58
2022/05/19 02:28:43;;;;;;;14.07;4.97;;;;;;;;;;143748;626;45018;-58
2022/05/19 02:31:10;;;;;;;9.18;4.32;;;;;;;;;;143751;633;45024;-59
2022/05/19 02:33:37;;;;;;;11.50;4.55;;;;;;;;;;143749;575;47018;-58
2022/05/19 02:36:05;;;;;;;15.88;4.60;;;;;;;;;;143746;602;47010;-59
2022/05/19 02:38:33;;;;;;;8.38;4.50;;;;;;;;;;143745;572;45019;-58
2022/05/19 02:41:00;;;;;;;11.02;4.53;;;;;;;;;;143752;569;47010;-58
2022/05/19 02:43:27;;;;;;;10.57;4.97;;;;;;;;;;143748;629;47020;-58
2022/05/19 02:45:54;;;;;;;12.02;4.68;;;;;;;;;;143746;575;47011;-58
2022/05/19 02:48:21;;;;;;;8.20;3.78;;;;;;;;;;143748;565;45019;-58
2022/05/19 02:50:50;;;;;;;8.48;3.87;;;;;;;;;;143753;634;45022;-58
2022/05/19 02:53:19;;;;;;;14.35;5.20;;;;;;;;;;143750;630;47018;-58
2022/05/19 02:55:46;;;;;;;11.02;4.43;;;;;;;;;;143749;574;46020;-58
2022/05/19 02:58:15;;;;;;;11.52;4.30;;;;;;;;;;143751;586;45018;-59
2022/05/19 03:00:43;;;;;;;12.85;4.35;;;;;;;;;;143752;583;45022;-58
2022/05/19 03:03:11;;;;;;;9.25;3.70;;;;;;;;;;143742;587;47019;-58
2022/05/19 03:05:38;;;;;;;9.93;3.70;;;;;;;;;;143747;623;47010;-58
2022/05/19 03:08:06;;;;;;;9.90;4.05;;;;;;;;;;143747;600;45910;-58
2022/05/19 03:10:36;;;;;;;10.38;3.75;;;;;;;;;;143754;583;45023;-58
2022/05/19 03:13:04;;;;;;;12.60;4.87;;;;;;;;;;143749;569;47020;-58
2022/05/19 03:15:32;;;;;;;10.85;5.68;;;;;;;;;;143748;565;46010;-58
2022/05/19 03:17:59;;;;;;;11.40;3.72;;;;;;;;;;143749;626;45019;-58
2022/05/19 03:20:26;;;;;;;11.90;3.37;;;;;;;;;;143753;564;46022;-59
2022/05/19 03:22:53;;;;;;;11.93;4.60;;;;;;;;;;143747;575;47018;-58
2022/05/19 03:25:20;;;;;;;9.40;3.72;;;;;;;;;;143745;578;47010;-58
2022/05/19 03:27:47;;;;;;;11.75;4.10;;;;;;;;;;143744;596;45018;-58
2022/05/19 03:30:17;;;;;;;9.68;3.65;;;;;;;;;;143752;626;46022;-58
2022/05/19 03:32:43;;;;;;;12.37;4.28;;;;;;;;;;143747;607;47019;-58
2022/05/19 03:35:13;;;;;;;10.02;3.90;;;;;;;;;;143748;569;46010;-58
2022/05/19 03:37:40;;;;;;;9.00;3.22;;;;;;;;;;143748;603;45020;-58
2022/05/19 03:40:08;;;;;;;9.10;3.97;;;;;;;;;;143754;579;46021;-58
2022/05/19 03:42:35;;;;;;;6.68;3.08;;;;;;;;;;143746;612;47018;-59
2022/05/19 03:45:04;;;;;;;9.88;3.58;;;;;;;;;;143748;573;46010;-58
2022/05/19 03:47:31;;;;;;;8.38;3.40;;;;;;;;;;143751;635;45910;-58
2022/05/19 03:49:58;;;;;;;12.82;3.58;;;;;;;;;;143753;587;45022;-58
2022/05/19 03:52:26;;;;;;;10.35;4.12;;;;;;;;;;143742;596;47018;-58
2022/05/19 03:54:53;;;;;;;9.10;3.70;;;;;;;;;;143747;612;47010;-58
2022/05/19 03:57:23;;;;;;;10.60;3.50;;;;;;;;;;143751;571;45912;-58
2022/05/19 03:59:50;;;;;;;9.43;4.60;;;;;;;;;;143753;606;45020;-58
2022/05/19 04:02:18;;;;;;;12.40;4.70;;;;;;;;;;143749;643;47019;-58
2022/05/19 04:04:45;;;;;;;9.85;3.50;;;;;;;;;;143737;634;45918;-58
2022/05/19 04:07:11;;;;;;;8.27;3.62;;;;;;;;;;143748;607;46018;-58
2022/05/19 04:09:38;;;;;;;8.30;3.28;;;;;;;;;;143753;600;46023;-58
2022/05/19 04:12:06;;;;;;;13.85;4.35;;;;;;;;;;143746;570;47018;-57
2022/05/19 04:14:33;;;;;;;13.10;4.12;;;;;;;;;;143750;573;46010;-58
2022/05/19 04:17:00;;;;;;;13.27;4.93;;;;;;;;;;143744;590;45019;-57
2022/05/19 04:19:27;;;;;;;8.63;5.55;;;;;;;;;;143752;641;45022;-58
2022/05/19 04:21:54;;;;;;;10.80;4.43;;;;;;;;;;143749;586;47018;-58
2022/05/19 04:24:21;;;;;;;9.43;3.83;;;;;;;;;;143748;585;46010;-57
2022/05/19 04:26:49;;;;;;;13.70;6.18;;;;;;;;;;143748;583;45018;-58
2022/05/19 04:29:16;;;;;;;9.80;5.12;;;;;;;;;;143752;595;45022;-58
2022/05/19 04:31:43;;;;;;;14.15;7.90;;;;;;;;;;143746;612;47019;-58
2022/05/19 04:34:10;;;;;;;12.63;5.93;;;;;;;;;;143747;565;47010;-58
2022/05/19 04:36:37;;;;;;;7.93;4.40;;;;;;;;;;143750;615;45018;-58
2022/05/19 04:39:04;;;;;;;13.55;3.70;;;;;;;;;;143751;569;46011;-57
2022/05/19 04:41:31;;;;;;;11.80;3.53;;;;;;;;;;143742;619;47020;-58
2022/05/19 04:43:59;;;;;;;9.00;3.45;;;;;;;;;;143748;603;47010;-58
2022/05/19 04:46:25;;;;;;;5.32;2.87;;;;;;;;;;143749;564;45019;-57
2022/05/19 04:48:52;;;;;;;16.73;3.50;;;;;;;;;;143752;569;45023;-57
2022/05/19 04:51:19;;;;;;;11.85;4.15;;;;;;;;;;143746;598;47020;-58
2022/05/19 04:53:46;;;;;;;9.38;3.37;;;;;;;;;;143746;570;46011;-57
2022/05/19 04:56:14;;;;;;;9.75;3.78;;;;;;;;;;143745;620;45909;-58
2022/05/19 04:58:41;;;;;;;5.78;2.90;;;;;;;;;;143750;565;45022;-58
2022/05/19 05:01:09;;;;;;;8.98;3.42;;;;;;;;;;143746;564;47020;-57
2022/05/19 05:03:36;;;;;;;6.35;2.87;;;;;;;;;;143744;646;47010;-58
2022/05/19 05:06:03;;;;;;;5.45;3.00;;;;;;;;;;143742;585;45018;-59
2022/05/19 05:08:30;;;;;;;9.20;3.17;;;;;;;;;;143751;596;45023;-58
2022/05/19 05:10:57;;;;;;;7.47;3.12;;;;;;;;;;143745;566;47021;-58
2022/05/19 05:13:24;;;;;;;13.90;2.85;;;;;;;;;;143748;636;46010;-58
2022/05/19 05:15:51;;;;;;;3.03;1.85;;;;;;;;;;143745;589;46018;-58
2022/05/19 05:18:18;;;;;;;6.22;2.12;;;;;;;;;;143751;657;45023;-58
2022/05/19 05:20:45;;;;;;;4.78;2.30;;;;;;;;;;143746;774;47020;-58
2022/05/19 05:23:13;;;;;;;10.25;3.50;;;;;;;;;;143745;620;47010;-58
2022/05/19 05:25:40;;;;;;;5.30;2.40;;;;;;;;;;143746;575;46019;-58
2022/05/19 05:28:08;;;;;;;4.05;1.95;;;;;;;;;;143752;753;46022;-58
2022/05/19 05:30:35;;;;;;;11.65;2.78;;;;;;;;;;143738;564;47020;-58
2022/05/19 05:33:08;;;;;;;4.68;2.33;;;;;;;;;;143738;662;47010;-58
2022/05/19 05:35:36;;;;;;;3.80;2.50;;;;;;;;;;143748;574;45018;-58
2022/05/19 05:38:03;;;;;;;4.30;2.20;;;;;;;;;;143752;566;46022;-58
2022/05/19 05:40:30;;;;;;;3.20;1.73;;;;;;;;;;143748;588;47018;-57
2022/05/19 05:43:11;;;;;;;3.90;2.28;;;;;;;;;;143746;877;46010;-57
2022/05/19 05:45:38;;;;;;;5.40;2.78;;;;;;;;;;143747;684;46009;-57
2022/05/19 05:48:06;;;;;;;5.93;1.92;;;;;;;;;;143750;594;46010;-57
2022/05/19 05:50:33;;;;;;;5.55;2.90;;;;;;;;;;143749;585;46020;-58
2022/05/19 05:52:59;;;;;;;6.80;2.90;;;;;;;;;;143746;564;46011;-58
2022/05/19 05:55:26;;;;;;;11.30;2.97;;;;;;;;;;143740;585;45019;-57
2022/05/19 05:57:53;;;;;;;7.45;3.30;;;;;;;;;;143749;577;46022;-57
2022/05/19 06:00:21;;;;;;;9.77;3.75;;;;;;;;;;143746;787;47019;-58
2022/05/19 06:02:51;;;;;;;5.75;3.22;;;;;;;;;;143747;620;46028;-58
2022/05/19 06:05:19;;;;;;;6.93;3.03;;;;;;;;;;143748;612;45018;-58
2022/05/19 06:07:46;;;;;;;6.72;3.70;;;;;;;;;;143751;576;45024;-58
2022/05/19 06:10:13;;;;;;;8.18;2.25;;;;;;;;;;143748;587;47018;-58
2022/05/19 06:12:41;;;;;;;5.70;2.30;;;;;;;;;;143746;579;47010;-58
2022/05/19 06:15:10;;;;;;;5.90;2.30;;;;;;;;;;143746;577;46018;-59
2022/05/19 06:17:39;;;;;;;13.23;2.97;;;;;;;;;;143751;618;46023;-58
2022/05/19 06:20:10;;;;;;;9.25;2.92;;;;;;;;;;143738;789;49018;-59
2022/05/19 06:22:37;;;;;;;7.75;3.10;;;;;;;;;;143750;578;46024;-58
2022/05/19 06:25:06;;;;;;;5.65;2.67;;;;;;;;;;143750;629;45018;-58
2022/05/19 06:27:33;;;;;;;6.05;1.95;;;;;;;;;;143751;611;45022;-59
2022/05/19 06:30:00;;;;;;;11.55;4.00;;;;;;;;;;143747;564;47019;-58
2022/05/19 06:32:27;;;;;;;9.27;2.75;;;;;;;;;;143747;599;46010;-59
2022/05/19 06:34:54;;;;;;;7.15;3.33;;;;;;;;;;143747;649;45018;-58
2022/05/19 06:37:21;;;;;;;10.50;3.28;;;;;;;;;;143751;571;46022;-57
2022/05/19 06:39:47;;;;;;;8.38;3.35;;;;;;;;;;143746;583;47018;-58
2022/05/19 06:42:14;;;;;;;9.70;3.50;;;;;;;;;;143747;747;46028;-58
2022/05/19 06:44:43;;;;;;;9.15;2.92;;;;;;;;;;143742;706;45019;-57
2022/05/19 06:47:15;;;;;;;10.60;3.78;;;;;;;;;;143750;564;45023;-58
2022/05/19 06:49:52;;;;;;;9.82;3.55;;;;;;;;;;143746;624;47018;-58
2022/05/19 06:52:25;;;;;;;17.35;2.67;;;;;;;;;;143753;571;46012;-58
2022/05/19 06:54:54;;;;;;;5.68;2.05;;;;;;;;;;143745;571;45019;-58
2022/05/19 06:57:22;;;;;;;9.27;3.15;;;;;;;;;;143752;629;46022;-57
2022/05/19 06:59:50;;;;;;;9.45;3.17;;;;;;;;;;143747;571;47020;-58
2022/05/19 07:02:19;;;;;;;6.82;2.78;;;;;;;;;;143748;581;46012;-58
2022/05/19 07:04:46;;;;;;;8.90;2.72;;;;;;;;;;143748;651;45018;-58
2022/05/19 07:07:14;;;;;;;7.30;2.60;;;;;;;;;;143751;690;45023;-58
2022/05/19 07:09:42;;;;;;;4.35;2.62;;;;;;;;;;143741;571;47018;-57
2022/05/19 07:12:10;;;;;;;5.37;2.35;;;;;;;;;;143742;621;46022;-57
2022/05/19 07:14:37;;;;;;;4.28;1.87;;;;;;;;;;143748;621;45019;-58
2022/05/19 07:17:05;;;;;;;8.35;2.75;;;;;;;;;;143737;580;47010;-57
2022/05/19 07:22:22;;;;;;;4.85;1.98;;;;;;;;;;143754;649;46012;-58
2022/05/19 07:24:50;;;;;;;4.20;2.33;;;;;;;;;;143750;587;45018;-58
2022/05/19 07:27:17;;;;;;;4.03;1.80;;;;;;;;;;143751;569;46010;-58
2022/05/19 07:29:44;;;;;;;4.93;2.25;;;;;;;;;;143745;577;47020;-58
2022/05/19 07:32:11;;;;;;;3.92;1.67;;;;;;;;;;143739;581;48022;-58
2022/05/19 07:34:40;;;;;;;5.72;2.12;;;;;;;;;;143741;603;45018;-58
2022/05/19 07:37:07;;;;;;;2.00;1.37;;;;;;;;;;143752;592;45023;-58
2022/05/19 07:39:34;;;;;;;2.40;1.67;;;;;;;;;;143746;585;47018;-58
2022/05/19 07:42:01;;;;;;;8.57;2.95;;;;;;;;;;143745;605;47012;-58
2022/05/19 07:44:29;;;;;;;5.47;2.33;;;;;;;;;;143748;574;45019;-58
2022/05/19 07:46:56;;;;;;;5.40;2.75;;;;;;;;;;143751;592;45023;-57
2022/05/19 07:49:24;;;;;;;6.35;2.78;;;;;;;;;;143745;597;47018;-58
2022/05/19 07:51:51;;;;;;;4.03;2.78;;;;;;;;;;143745;585;47036;-57
2022/05/19 07:54:22;;;;;;;3.95;2.33;;;;;;;;;;143748;590;45019;-58
2022/05/19 07:56:49;;;;;;;4.35;1.70;;;;;;;;;;143750;615;46022;-57
2022/05/19 07:59:16;;;;;;;7.15;2.37;;;;;;;;;;143738;566;47019;-58
2022/05/19 08:01:45;;;;;;;3.53;1.73;;;;;;;;;;143744;564;47012;-58
2022/05/19 08:04:12;;;;;;;4.32;2.00;;;;;;;;;;143747;564;45018;-58
2022/05/19 08:06:40;;;;;;;4.85;1.55;;;;;;;;;;143750;604;46022;-58
2022/05/19 08:10:20;;;;;;;4.65;1.92;;;;;;;;;;143746;575;47018;-58
2022/05/19 08:11:55;;;;;;;4.22;1.90;;;;;;;;;;143747;583;46012;-58
2022/05/19 08:17:27;;;;;;;3.60;2.05;;;;;;;;;;143752;580;46012;-58
2022/05/19 08:19:54;;;;;;;4.55;2.60;;;;;;;;;;143749;573;47018;-58
2022/05/19 08:22:21;;;;;;;4.15;2.10;;;;;;;;;;143745;583;46012;-58
2022/05/19 08:24:49;;;;;;;3.37;1.52;;;;;;;;;;143744;635;45018;-58
2022/05/19 08:27:18;;;;;;;4.00;1.85;;;;;;;;;;143750;576;45027;-58
2022/05/19 08:29:45;;;;;;;4.72;1.58;;;;;;;;;;143747;610;47018;-58
2022/05/19 08:32:12;;;;;;;6.50;2.08;;;;;;;;;;143743;564;49012;-58
2022/05/19 08:34:39;;;;;;;1.80;1.55;;;;;;;;;;143746;581;46018;-57
2022/05/19 08:37:06;;;;;;;3.87;1.45;;;;;;;;;;143751;592;45023;-58
2022/05/19 08:39:33;;;;;;;3.47;1.65;;;;;;;;;;143746;578;47020;-58
2022/05/19 08:42:03;;;;;;;7.25;1.75;;;;;;;;;;143748;613;46012;-58
2022/05/19 08:44:48;;;;;;;4.62;1.60;;;;;;;;;;143748;767;45019;-58
2022/05/19 08:47:20;;;;;;;3.67;2.08;;;;;;;;;;143751;578;45023;-58
2022/05/19 08:49:52;;;;;;;4.95;1.58;;;;;;;;;;143739;563;47020;-58
2022/05/19 08:52:21;;;;;;;2.62;1.90;;;;;;;;;;143748;580;46013;-58
2022/05/19 08:54:52;;;;;;;2.00;1.58;;;;;;;;;;143750;566;45018;-59
2022/05/19 08:57:42;;;;;;;4.57;1.73;;;;;;;;;;143751;566;45022;-59
2022/05/19 09:00:49;;;;;;;3.53;2.10;;;;;;;;;;143746;569;47018;-58
2022/05/19 09:03:52;;;;;;;3.12;1.85;;;;;;;;;;143747;589;46012;-59
2022/05/19 09:07:56;;;;;;;2.25;1.48;;;;;;;;;;143747;585;45020;-59
2022/05/19 09:10:01;;;;;;;1.85;1.55;;;;;;;;;;143751;672;45024;-60
2022/05/19 09:12:32;;;;;;;4.70;1.62;;;;;;;;;;143746;564;47020;-59
2022/05/19 09:14:59;;;;;;;2.40;1.52;;;;;;;;;;143746;569;47013;-59
2022/05/19 09:17:30;;;;;;;4.62;1.65;;;;;;;;;;143742;569;45018;-59
2022/05/19 09:20:03;;;;;;;2.42;1.75;;;;;;;;;;143750;570;46022;-59
2022/05/19 09:22:33;;;;;;;5.37;2.15;;;;;;;;;;143746;584;47021;-58
2022/05/19 09:25:05;;;;;;;2.55;1.48;;;;;;;;;;143747;587;47012;-59
2022/05/19 09:27:35;;;;;;;5.40;2.60;;;;;;;;;;143748;566;45018;-59
2022/05/19 09:30:03;;;;;;;1.90;1.08;;;;;;;;;;143750;629;46020;-58
2022/05/19 09:32:45;;;;;;;3.22;1.65;;;;;;;;;;143746;589;47020;-60
2022/05/19 09:35:25;;;;;;;1.45;1.30;;;;;;;;;;143748;571;46918;-58
2022/05/19 09:38:26;;;;;;;3.60;1.77;;;;;;;;;;143745;732;45912;-59
2022/05/19 09:40:59;;;;;;;1.65;0.93;;;;;;;;;;143750;586;46022;-59
2022/05/19 09:43:29;;;;;;;2.35;1.27;;;;;;;;;;143739;593;47020;-59
2022/05/19 09:46:09;;;;;;;6.28;1.85;;;;;;;;;;143747;596;46029;-59
2022/05/19 09:48:41;;;;;;;4.32;1.58;;;;;;;;;;143747;581;45018;-60
2022/05/19 09:51:15;;;;;;;4.53;1.60;;;;;;;;;;143750;632;46023;-58
2022/05/19 09:53:49;;;;;;;2.67;1.60;;;;;;;;;;143746;564;47018;-59
2022/05/19 09:56:20;;;;;;;6.03;1.73;;;;;;;;;;143747;566;46033;-59
2022/05/19 09:58:49;;;;;;;1.80;1.40;;;;;;;;;;143747;569;46018;-59
2022/05/19 10:01:35;;;;;;;4.15;1.45;;;;;;;;;;143750;601;46023;-59
2022/05/19 10:04:08;;;;;;;4.53;1.58;;;;;;;;;;143747;650;47018;-58
2022/05/19 10:07:06;;;;;;;4.32;1.65;;;;;;;;;;143746;579;46012;-59
2022/05/19 10:09:39;;;;;;;2.58;1.45;;;;;;;;;;143742;594;45020;-59
2022/05/19 10:12:09;;;;;;;5.45;1.80;;;;;;;;;;143751;616;46022;-59
2022/05/19 10:14:36;;;;;;;5.57;2.05;;;;;;;;;;143747;637;47019;-59
2022/05/19 10:17:50;;;;;;;2.25;1.73;;;;;;;;;;143748;564;46012;-59
2022/05/19 10:20:24;;;;;;;5.25;1.85;;;;;;;;;;143746;627;45019;-59
2022/05/19 10:23:09;;;;;;;2.25;1.58;;;;;;;;;;143749;569;45023;-59
2022/05/19 10:26:19;;;;;;;4.53;1.83;;;;;;;;;;143746;564;47018;-59
2022/05/19 10:32:50;;;;;;;7.43;2.90;;;;;;;;;;143748;592;46025;-60
2022/05/19 10:35:49;;;;;;;6.80;2.47;;;;;;;;;;143751;571;45024;-59
2022/05/19 10:38:42;;;;;;;2.90;1.80;;;;;;;;;;143741;585;47021;-60
2022/05/19 10:41:47;;;;;;;4.07;2.17;;;;;;;;;;143741;650;47012;-60
2022/05/19 10:44:56;;;;;;;5.47;2.10;;;;;;;;;;143747;564;45021;-60
2022/05/19 10:47:59;;;;;;;2.12;1.50;;;;;;;;;;143752;571;46022;-60
2022/05/19 10:50:37;;;;;;;2.42;1.70;;;;;;;;;;143746;574;47022;-60
2022/05/19 10:53:50;;;;;;;4.03;1.67;;;;;;;;;;143745;566;47012;-59
2022/05/19 10:57:03;;;;;;;2.83;1.92;;;;;;;;;;143747;573;45018;-60
2022/05/19 11:00:07;;;;;;;3.45;1.73;;;;;;;;;;143751;618;45023;-60
2022/05/19 11:03:09;;;;;;;3.40;1.98;;;;;;;;;;143748;586;47020;-59
2022/05/19 11:06:09;;;;;;;3.58;1.83;;;;;;;;;;143747;626;47013;-59
2022/05/19 11:09:15;;;;;;;3.03;2.03;;;;;;;;;;143743;672;47018;-59
2022/05/19 11:12:01;;;;;;;;;;;;;;;;;;143757;976;45023;-59
2022/05/19 11:14:55;;;;;;;4.25;2.80;;;;;;;;;;143753;566;47021;-60
2022/05/19 11:18:22;;;;;;;3.50;1.55;;;;;;;;;;143748;580;47032;-59
2022/05/19 11:21:35;;;;;;;4.65;1.95;;;;;;;;;;143747;591;45019;-59
2022/05/19 11:26:23;;;;;;;5.05;1.58;;;;;;;;;;143752;569;46022;-60
2022/05/19 11:27:30;;;;;;;1.73;1.37;;;;;;;;;;143749;592;47013;-60
2022/05/19 11:30:03;;;;;;;8.52;2.28;;;;;;;;;;143748;574;46012;-59
2022/05/19 11:32:36;;;;;;;7.25;1.80;;;;;;;;;;143749;564;45018;-60
2022/05/19 11:35:32;;;;;;;3.92;1.83;;;;;;;;;;143751;564;45023;-60
2022/05/19 11:38:42;;;;;;;3.67;1.60;;;;;;;;;;143737;580;47018;-59
2022/05/19 11:41:23;;;;;;;4.47;1.95;;;;;;;;;;143742;570;47012;-59
2022/05/19 11:44:22;;;;;;;5.90;1.52;;;;;;;;;;143748;601;45019;-59
2022/05/19 11:56:20;;;;;;;5.85;2.03;;;;;;;;;;143748;566;46033;-59
2022/05/19 11:58:47;;;;;;;4.20;1.30;;;;;;;;;;143752;577;45023;-59
2022/05/19 12:01:38;;;;;;;2.87;1.85;;;;;;;;;;143747;611;47020;-59
2022/05/19 12:04:21;;;;;;;5.30;1.83;;;;;;;;;;143748;613;47013;-59
2022/05/19 12:06:54;;;;;;;4.82;1.90;;;;;;;;;;143743;617;45019;-59
2022/05/19 12:09:33;;;;;;;1.92;1.73;;;;;;;;;;143752;586;45022;-60
2022/05/19 12:12:15;;;;;;;2.15;1.52;;;;;;;;;;143748;591;47020;-59
2022/05/19 12:15:14;;;;;;;2.75;1.45;;;;;;;;;;143742;650;47012;-59
2022/05/19 12:17:47;;;;;;;2.80;1.80;;;;;;;;;;143749;638;45020;-59
2022/05/19 12:20:53;;;;;;;4.28;2.17;;;;;;;;;;143757;587;45023;-60
2022/05/19 12:23:40;;;;;;;2.72;1.60;;;;;;;;;;143747;577;47020;-59
2022/05/19 12:26:31;;;;;;;2.55;1.83;;;;;;;;;;143747;581;46012;-60
2022/05/19 12:29:29;;;;;;;2.22;1.30;;;;;;;;;;143749;626;45019;-59
2022/05/19 12:32:06;;;;;;;3.47;2.35;;;;;;;;;;143753;572;45022;-59
2022/05/19 12:34:42;;;;;;;5.05;1.75;;;;;;;;;;143740;584;47020;-60
2022/05/19 12:37:33;;;;;;;1.95;1.60;;;;;;;;;;143746;576;47012;-60
2022/05/19 12:41:08;;;;;;;4.53;2.42;;;;;;;;;;143748;618;45912;-60
2022/05/19 12:43:46;;;;;;;3.83;1.67;;;;;;;;;;143750;585;46023;-60
2022/05/19 12:46:33;;;;;;;2.75;1.52;;;;;;;;;;143748;581;47020;-59
2022/05/19 12:49:34;;;;;;;1.10;1.10;;;;;;;;;;143748;631;47012;-60
2022/05/19 12:52:21;;;;;;;4.00;2.50;;;;;;;;;;143751;569;45018;-60
2022/05/19 12:55:12;;;;;;;4.45;1.98;;;;;;;;;;143753;583;45022;-60
2022/05/19 12:57:39;;;;;;;3.87;1.70;;;;;;;;;;143747;583;47023;-60
2022/05/19 13:00:19;;;;;;;3.80;1.65;;;;;;;;;;143749;593;46012;-60
2022/05/19 13:03:09;;;;;;;1.17;1.08;;;;;;;;;;143745;640;45018;-60
2022/05/19 13:05:51;;;;;;;3.40;1.33;;;;;;;;;;143752;576;46023;-60
2022/05/19 13:08:39;;;;;;;2.85;1.62;;;;;;;;;;143750;581;47018;-60
2022/05/19 13:11:15;;;;;;;4.78;1.90;;;;;;;;;;143749;596;46013;-60
2022/05/19 13:13:51;;;;;;;1.45;1.08;;;;;;;;;;143746;603;46019;-60
2022/05/19 13:16:38;;;;;;;6.18;2.00;;;;;;;;;;143746;658;46022;-59
2022/05/19 13:19:25;;;;;;;3.67;1.50;;;;;;;;;;143749;585;47020;-60
2022/05/19 13:22:01;;;;;;;1.60;1.23;;;;;;;;;;143746;610;47012;-59
2022/05/19 13:24:29;;;;;;;3.67;1.75;;;;;;;;;;143749;569;45018;-60
2022/05/19 13:32:33;;;;;;;2.33;1.30;;;;;;;;;;143747;572;47022;-60
2022/05/19 13:35:14;;;;;;;3.25;1.60;;;;;;;;;;143748;618;45019;-59
2022/05/19 13:37:43;;;;;;;1.35;1.27;;;;;;;;;;143752;615;45022;-59
2022/05/19 13:40:33;;;;;;;5.28;1.50;;;;;;;;;;143748;626;47020;-59
2022/05/19 13:43:13;;;;;;;7.62;1.92;;;;;;;;;;143747;589;47012;-60
2022/05/19 13:45:56;;;;;;;3.70;1.77;;;;;;;;;;143748;572;45018;-59
2022/05/19 13:48:57;;;;;;;4.97;1.73;;;;;;;;;;143752;579;46022;-60
2022/05/19 13:51:45;;;;;;;4.47;1.73;;;;;;;;;;143746;624;47018;-59
2022/05/19 13:54:26;;;;;;;3.33;2.25;;;;;;;;;;143749;606;46012;-59
2022/05/19 13:57:02;;;;;;;8.57;2.65;;;;;;;;;;143744;602;45019;-60
2022/05/19 13:59:31;;;;;;;6.37;1.60;;;;;;;;;;143752;585;45022;-59
2022/05/19 14:02:08;;;;;;;4.18;1.98;;;;;;;;;;143750;565;47019;-59
2022/05/19 14:04:41;;;;;;;3.62;1.40;;;;;;;;;;143744;614;46918;-59
2022/05/19 14:07:12;;;;;;;2.42;1.37;;;;;;;;;;143750;603;45018;-59
2022/05/19 14:10:14;;;;;;;3.30;1.83;;;;;;;;;;143751;591;46012;-59
2022/05/19 14:12:53;;;;;;;2.67;1.77;;;;;;;;;;143744;570;47023;-59
2022/05/19 14:15:39;;;;;;;5.47;2.62;;;;;;;;;;143749;593;46040;-59
2022/05/19 14:18:25;;;;;;;3.37;1.95;;;;;;;;;;143752;571;45023;-59
2022/05/19 14:20:55;;;;;;;2.58;1.73;;;;;;;;;;143752;605;45018;-59
2022/05/19 14:23:46;;;;;;;2.75;2.20;;;;;;;;;;143743;607;47020;-59
2022/05/19 14:26:16;;;;;;;3.90;1.45;;;;;;;;;;143748;658;47012;-59
2022/05/19 14:28:46;;;;;;;8.35;3.33;;;;;;;;;;143751;569;45020;-59
2022/05/19 14:31:27;;;;;;;4.25;2.17;;;;;;;;;;143754;570;45020;-59
2022/05/19 14:34:09;;;;;;;2.58;1.37;;;;;;;;;;143748;569;47022;-59
2022/05/19 14:36:44;;;;;;;3.95;2.78;;;;;;;;;;143747;594;47020;-59
2022/05/19 14:39:47;;;;;;;2.17;1.62;;;;;;;;;;143750;620;45022;-60
2022/05/19 14:45:19;;;;;;;3.70;1.90;;;;;;;;;;143752;638;46020;-60
2022/05/19 14:47:54;;;;;;;5.30;2.10;;;;;;;;;;143748;614;46013;-59
2022/05/19 14:50:29;;;;;;;4.15;1.67;;;;;;;;;;143744;607;45912;-59
2022/05/19 14:53:01;;;;;;;6.10;2.47;;;;;;;;;;143751;613;46020;-60
2022/05/19 14:55:38;;;;;;;2.60;1.67;;;;;;;;;;143749;672;47021;-59
2022/05/19 14:58:17;;;;;;;5.50;1.85;;;;;;;;;;143749;593;46032;-59
2022/05/19 15:00:44;;;;;;;2.70;2.05;;;;;;;;;;143750;613;45020;-59
2022/05/19 15:03:12;;;;;;;2.87;1.83;;;;;;;;;;143754;596;45021;-59
2022/05/19 15:05:40;;;;;;;2.30;1.73;;;;;;;;;;143748;583;47023;-59
2022/05/19 15:08:14;;;;;;;5.70;2.30;;;;;;;;;;143749;608;46012;-59
2022/05/19 15:10:42;;;;;;;2.33;1.52;;;;;;;;;;143751;590;45021;-59
2022/05/19 15:13:10;;;;;;;6.25;2.72;;;;;;;;;;143753;619;45021;-59
2022/05/19 15:15:39;;;;;;;3.15;2.17;;;;;;;;;;143742;579;47020;-59
2022/05/19 15:18:07;;;;;;;3.40;1.87;;;;;;;;;;143750;586;46013;-59
2022/05/19 15:20:36;;;;;;;5.95;1.75;;;;;;;;;;143752;613;45021;-59
2022/05/19 15:23:03;;;;;;;2.40;1.65;;;;;;;;;;143747;579;46020;-59
2022/05/19 15:25:32;;;;;;;3.72;1.83;;;;;;;;;;143748;590;47021;-60
2022/05/19 15:27:59;;;;;;;6.80;2.35;;;;;;;;;;143748;579;46012;-60
2022/05/19 15:30:29;;;;;;;8.23;2.53;;;;;;;;;;143748;564;45020;-60
2022/05/19 15:32:56;;;;;;;9.02;2.85;;;;;;;;;;143752;588;45021;-59
2022/05/19 15:35:24;;;;;;;7.22;3.03;;;;;;;;;;143748;596;47023;-59
2022/05/19 15:37:51;;;;;;;4.35;2.58;;;;;;;;;;143748;586;46012;-59
2022/05/19 15:40:21;;;;;;;4.62;1.95;;;;;;;;;;143744;586;45021;-60
2022/05/19 15:42:48;;;;;;;3.80;1.83;;;;;;;;;;143753;582;46020;-59
2022/05/19 15:45:15;;;;;;;4.57;1.83;;;;;;;;;;143747;587;47022;-59
2022/05/19 15:47:48;;;;;;;5.15;1.83;;;;;;;;;;143748;569;47012;-59
2022/05/19 15:50:21;;;;;;;6.15;2.47;;;;;;;;;;143748;570;45020;-59
2022/05/19 15:52:52;;;;;;;4.87;2.47;;;;;;;;;;143752;577;46012;-60
2022/05/19 15:55:20;;;;;;;4.55;2.37;;;;;;;;;;143750;600;47021;-59
2022/05/19 15:57:47;;;;;;;5.05;2.58;;;;;;;;;;143748;569;47010;-59